Aktualne dane pomiarowe

Uwaga, wersja testowa! Automatyczne pobieranie danych za pomocą narzędzi lub skryptów to umożliwiających jest zabronione.

Dane meteo z obszaru Polski uzyskane na podstawie depesz SYNOP pobieranych co godzinę z NWS. Najedź myszką na symbol przedstawiony w tabeli, aby uzyskać informacje co do jego znaczenia. Prosimy pamiętać, że to testowa wersja strony, która jeszcze nie jest ukończona. Stworzono również jest krótki FAQ dotyczący korzystania z tej podstrony Anomalie temperatury w chwili obecnej odniesione są do okresu referencyjnego 1951-2016. Okres ten będzie później zmieniony na 1981-2010. Kliknij ikonę aby pobrać plik CSV. Kliknij ikonę aby wygenerować mapę synoptyczną dla danego terminu.

Wybierz Datę:    

        

Przemyśl (12695)

Dane terminowe dla wybranej stacji. Kliknij datę, aby otrzymać dane z tego terminu dla wszystkich stacji.

TemperaturaZachmurzenieWiatrCiśnienieOpadyPogoda
 Data t td wb tx tn tg rh  Nt Nl Cl Cm Ch ws wd g1 g2 wx mslp ppp ch 24h 12h t ww ww w1 w2  
2019-06-22 23:00:00 18.3 17.2 17.5--- 93---1----1018.9 986.2 -0.2---wx-----
2019-06-22 22:00:00 18.3 17.1 17.4--- 93---1----1019.3 986.5 0.0---wx-----
2019-06-22 21:00:00 19.2 17.7 18.1--- 91---3wx---1018.8 986.2 -0.3---wx-----
2019-06-22 20:00:00 19.8 17.8 18.4--- 88---2----1018.9 986.3 -0.4---wx-----
2019-06-22 19:00:00 19.8 17.7 18.3--- 88---1----1019.1 986.5 -0.4---wx-----
2019-06-22 18:00:00 20.3 18.0 18.7 24.6 16.7- 87---1----1019.1 986.5 -0.3- 0.012wx-----
2019-06-22 17:00:00 20.4 17.7 18.5--- 85---1----1019.3 986.7 0.2---wx-----
2019-06-22 16:00:00 20.3 17.3 18.2--- 83---1----1019.5 986.9 0.2---wx-----
2019-06-22 15:00:00 21.2 17.8 18.8--- 81---3----1019.3 986.8 0.0---wx-----
2019-06-22 14:00:00 22.9 18.7 20.0--- 77---2----1018.7 986.5 -0.9---wx-----
2019-06-22 13:00:00 22.8 18.2 19.6--- 75---1----1018.9 986.7 -0.9---wx-----
2019-06-22 12:00:00 24.0 18.3 20.1--- 71---2----1019.1 986.9 -0.5- 0.06wx-----
2019-06-22 11:00:00 21.2 17.6 18.7--- 80---0----1019.9 987.4 0.0---------
2019-06-22 10:00:00 23.7 18.0 19.8--- 70---2----1019.8 987.5 0.4---wx-----
2019-06-22 09:00:00 22.0 18.0 19.2--- 78---2----1019.9 987.5 0.6---wx-----
2019-06-22 08:00:00 20.9 17.0 18.2--- 78---1----1019.8 987.3 0.8---wx-----
2019-06-22 07:00:00 20.9 17.2 18.3--- 79---2----1019.7 987.2 0.8---wx-----
2019-06-22 06:00:00 19.6 17.2 17.9 26.5 16.7 17 86---2----1019.5 986.8 0.8 2.1 0.012wx---- 6.2
2019-06-22 05:00:00 18.4 17.0 17.4--- 92---2----1019.3 986.5 1.1---wx-----
2019-06-22 04:00:00 17.1 16.2 16.4--- 94---2----1019.3 986.4 1.0---wx-----
2019-06-22 03:00:00 16.7 16.2 16.3--- 97---2wx---1018.9 986.0 1.1---wx-----
2019-06-22 02:00:00 16.7 16.2 16.3--- 97---2----1018.3 985.4 0.9---wx-----
2019-06-22 01:00:00 17.6 16.4 16.7--- 93---1----1018.2 985.4 1.4---wx-----
2019-06-22 00:00:00 17.3 15.9 16.3--- 92---2----1017.7 984.9 1.0- 0.06wx-----
2019-06-21 23:00:00 17.4 15.6 16.1--- 89---3wx---1017.3 984.5 0.5---wx-----
2019-06-21 22:00:00 18.1 15.7 16.4--- 86---2----1016.7 984.0 0.3---wx-----
2019-06-21 21:00:00 18.3 15.7 16.5--- 85---1----1016.5 983.8 0.8---wx-----
2019-06-21 20:00:00 18.3 16.1 16.7--- 87---3----1016.7 984.0 1.2---wx-----
2019-06-21 19:00:00 19.5 15.8 17.0--- 79---1----1016.2 983.6 1.5---wx-----
2019-06-21 18:00:00 21.3 19.1 19.7 26.5 17.9- 87---2----1015.4 983.1 0.8- 2.012wx-----
2019-06-21 17:00:00 22.2 19.1 20.0--- 83---0----1015.0 982.8 0.6---------
2019-06-21 16:00:00 22.4 19.0 20.0--- 81---2----1014.3 982.1 -1.0---wx-----
2019-06-21 15:00:00 21.7 19.6 20.2--- 88---0----1014.5 982.3 -0.3---------
2019-06-21 14:00:00 20.4 19.2 19.5--- 93---3----1014.6 982.2 -0.5---wx-----
2019-06-21 13:00:00 19.7 18.7 19.0--- 94---3----1015.7 983.1 0.0---wx-----
2019-06-21 12:00:00 25.5 17.5 20.1--- 61---1----1014.4 982.6 -0.5- 0.06wx-----
2019-06-21 11:00:00 25.7 17.6 20.3--- 61---0----1014.5 982.7 -0.2---------
2019-06-21 10:00:00 25.3 18.5 20.7--- 66---0----1014.9 983.0 0.2---------
2019-06-21 09:00:00 24.9 18.2 20.3--- 66---2----1015.0 983.1 0.5---wx-----
2019-06-21 08:00:00 24.5 18.4 20.3--- 69---3----1014.8 982.9 0.7---wx-----
2019-06-21 07:00:00 23.5 18.9 20.3--- 75---2----1014.9 982.8 1.0---wx-----
2019-06-21 06:00:00 22.3 18.8 19.8 29.3 17.9 17 81---1----1014.8 982.6 1.0 0.0 0.012wx---- 12.0
2019-06-21 05:00:00 21.0 18.0 18.9--- 83---1----1014.5 982.2 0.9---wx-----
2019-06-21 04:00:00 19.0 17.8 18.1--- 93---1wx---1014.4 981.9 1.1---wx-----
2019-06-21 03:00:00 18.5 17.4 17.7--- 93---2wx---1014.2 981.6 0.9---wx-----
2019-06-21 02:00:00 18.1 17.5 17.7--- 96---1wx---1013.9 981.2 0.8---wx-----
2019-06-21 01:00:00 18.9 17.7 18.0--- 93---1wx---1013.3 980.8 0.2---wx-----
2019-06-21 00:00:00 19.0 17.9 18.2--- 93---2wx---1013.2 980.7 0.2- 0.06wx-----
2.6 ms

 

Print Friendly, PDF & Email